createdAt,value
2019-01-30T00:00:35.773Z,-2.00
2019-01-30T00:03:05.810Z,-1.90
2019-01-30T00:05:36.456Z,-1.90
2019-01-30T00:08:06.464Z,-1.90
2019-01-30T00:10:35.663Z,-1.90
2019-01-30T00:13:05.639Z,-1.80
2019-01-30T00:15:34.567Z,-1.90
2019-01-30T00:18:05.658Z,-1.90
2019-01-30T00:20:35.491Z,-2.00
2019-01-30T00:23:05.729Z,-2.00
2019-01-30T00:25:36.543Z,-2.10
2019-01-30T00:28:06.716Z,-2.20
2019-01-30T00:30:38.907Z,-2.30
2019-01-30T00:33:08.851Z,-2.30
2019-01-30T00:35:39.514Z,-2.30
2019-01-30T00:38:10.469Z,-2.30
2019-01-30T00:40:41.184Z,-2.30
2019-01-30T00:43:10.986Z,-2.40
2019-01-30T00:45:40.174Z,-2.40
2019-01-30T00:48:10.565Z,-2.40
2019-01-30T00:50:41.091Z,-2.40
2019-01-30T00:53:11.100Z,-2.30
2019-01-30T00:55:40.792Z,-2.40
2019-01-30T00:58:11.212Z,-2.40
2019-01-30T01:00:42.816Z,-2.40
2019-01-30T01:03:14.903Z,-2.40
2019-01-30T01:05:46.166Z,-2.40
2019-01-30T01:08:16.911Z,-2.50
2019-01-30T01:10:47.094Z,-2.40
2019-01-30T01:13:16.433Z,-2.40
2019-01-30T01:15:45.845Z,-2.40
2019-01-30T01:18:15.741Z,-2.10
2019-01-30T01:20:45.498Z,-2.10
2019-01-30T01:23:15.320Z,-1.80
2019-01-30T01:25:48.157Z,-1.50
2019-01-30T01:28:17.533Z,-1.30
2019-01-30T01:30:46.498Z,-1.20
2019-01-30T01:33:15.657Z,-1.30
2019-01-30T01:35:45.722Z,-1.40
2019-01-30T01:38:15.552Z,-1.40
2019-01-30T01:40:45.398Z,-1.40
2019-01-30T01:43:15.860Z,-1.50
2019-01-30T01:45:46.303Z,-1.30
2019-01-30T01:48:16.569Z,-1.00
2019-01-30T01:50:46.636Z,-0.90
2019-01-30T01:53:18.060Z,-1.20
2019-01-30T01:55:49.700Z,-1.60
2019-01-30T01:58:19.647Z,-1.80
2019-01-30T02:00:49.662Z,-2.10
2019-01-30T02:03:19.970Z,-2.30
2019-01-30T02:05:51.045Z,-2.40
2019-01-30T02:08:21.540Z,-2.50
2019-01-30T02:10:52.818Z,-2.60
2019-01-30T02:13:23.280Z,-2.70
2019-01-30T02:15:53.373Z,-2.80
2019-01-30T02:18:22.230Z,-2.90
2019-01-30T02:20:52.249Z,-2.90
2019-01-30T02:23:21.695Z,-2.90
2019-01-30T02:25:50.620Z,-2.90
2019-01-30T02:28:21.625Z,-2.90
2019-01-30T02:30:51.252Z,-3.00
2019-01-30T02:33:21.880Z,-3.00
2019-01-30T02:35:52.387Z,-3.00
2019-01-30T02:38:21.839Z,-3.00
2019-01-30T02:40:51.911Z,-3.00
2019-01-30T02:43:21.125Z,-2.90
2019-01-30T02:45:50.961Z,-2.90
2019-01-30T02:48:21.723Z,-2.90
2019-01-30T02:50:51.141Z,-2.80
2019-01-30T02:53:20.371Z,-2.70
2019-01-30T02:55:49.994Z,-2.70
2019-01-30T02:58:20.384Z,-2.70
2019-01-30T03:00:58.749Z,-2.70
2019-01-30T03:03:21.947Z,-2.80
2019-01-30T03:05:50.535Z,-2.80
2019-01-30T03:08:20.637Z,-2.70
2019-01-30T03:10:50.832Z,-2.60
2019-01-30T03:13:20.921Z,-2.60
2019-01-30T03:15:51.301Z,-2.30
2019-01-30T03:18:21.262Z,-2.30
2019-01-30T03:20:52.725Z,-2.30
2019-01-30T03:23:22.276Z,-2.30
2019-01-30T03:25:52.822Z,-2.30
2019-01-30T03:28:22.711Z,-2.30
2019-01-30T03:30:52.053Z,-2.30
2019-01-30T03:33:22.547Z,-2.40
2019-01-30T03:35:52.720Z,-2.30
2019-01-30T03:38:23.191Z,-2.30
2019-01-30T03:40:53.671Z,-2.30
2019-01-30T03:43:24.070Z,-2.30
2019-01-30T03:45:52.959Z,-2.40
2019-01-30T03:48:23.743Z,-2.50
2019-01-30T03:50:54.120Z,-2.50
2019-01-30T03:53:24.581Z,-2.50
2019-01-30T03:55:54.901Z,-2.60
2019-01-30T03:58:25.419Z,-2.60
2019-01-30T04:00:55.403Z,-2.70
2019-01-30T04:03:26.502Z,-2.70
2019-01-30T04:05:57.436Z,-2.80
2019-01-30T04:08:27.258Z,-2.90
2019-01-30T04:10:57.577Z,-3.00
2019-01-30T04:13:27.931Z,-3.10
2019-01-30T04:15:57.938Z,-3.20
2019-01-30T04:18:28.697Z,-3.30
2019-01-30T04:20:58.901Z,-3.30
2019-01-30T04:23:29.901Z,-3.30
2019-01-30T04:25:59.502Z,-3.30
2019-01-30T04:28:29.526Z,-3.30
2019-01-30T04:30:59.041Z,-3.20
2019-01-30T04:33:29.494Z,-3.20
2019-01-30T04:35:58.866Z,-3.00
2019-01-30T04:38:28.599Z,-2.90
2019-01-30T04:40:59.454Z,-2.90
2019-01-30T04:43:29.927Z,-2.80
2019-01-30T04:45:58.921Z,-2.60
2019-01-30T04:48:29.681Z,-2.50
2019-01-30T04:50:59.746Z,-2.50
2019-01-30T04:53:31.255Z,-2.50
2019-01-30T04:56:00.832Z,-2.50
2019-01-30T04:58:32.045Z,-2.50
2019-01-30T05:01:03.148Z,-2.50
2019-01-30T05:03:33.139Z,-2.50
2019-01-30T05:06:04.544Z,-2.50
2019-01-30T05:08:33.986Z,-2.50
2019-01-30T05:11:04.550Z,-2.50
2019-01-30T05:13:33.851Z,-2.50
2019-01-30T05:16:04.988Z,-2.60
2019-01-30T05:18:34.387Z,-2.60
2019-01-30T05:21:04.928Z,-2.60
2019-01-30T05:23:36.545Z,-2.70
2019-01-30T05:26:05.998Z,-2.70
2019-01-30T05:28:35.434Z,-2.70
2019-01-30T05:31:04.548Z,-2.70
2019-01-30T05:33:35.118Z,-2.70
2019-01-30T05:36:05.410Z,-2.60
2019-01-30T05:38:36.596Z,-2.60
2019-01-30T05:41:07.600Z,-2.60
2019-01-30T05:43:37.084Z,-2.60
2019-01-30T05:46:06.533Z,-2.60
2019-01-30T05:48:36.102Z,-2.60
2019-01-30T05:51:05.836Z,-2.60
2019-01-30T05:53:35.184Z,-2.40
2019-01-30T05:56:05.018Z,-2.30
2019-01-30T05:58:35.079Z,-2.30
2019-01-30T06:01:05.829Z,-2.30
2019-01-30T06:03:34.953Z,-2.30
2019-01-30T06:06:04.521Z,-2.20
2019-01-30T06:08:34.018Z,-2.30
2019-01-30T06:11:05.600Z,-2.30
2019-01-30T06:13:36.713Z,-2.40
2019-01-30T06:16:07.499Z,-2.40
2019-01-30T06:18:37.495Z,-2.40
2019-01-30T06:21:06.963Z,-2.30
2019-01-30T06:23:35.638Z,-2.30
2019-01-30T06:26:07.461Z,-2.30
2019-01-30T06:28:36.781Z,-2.30
2019-01-30T06:31:07.571Z,-2.30
2019-01-30T06:33:37.897Z,-2.30
2019-01-30T06:36:08.538Z,-2.30
2019-01-30T06:38:38.763Z,-2.30
2019-01-30T06:41:09.947Z,-2.30
2019-01-30T06:43:39.413Z,-2.30
2019-01-30T06:46:08.434Z,-2.20
2019-01-30T06:48:39.292Z,-2.20
2019-01-30T06:51:08.723Z,-2.10
2019-01-30T06:53:39.806Z,-2.10
2019-01-30T06:56:09.649Z,-2.10
2019-01-30T06:58:39.253Z,-2.00
2019-01-30T07:01:09.258Z,-2.00
2019-01-30T07:03:39.356Z,-2.00
2019-01-30T07:06:08.356Z,-2.00
2019-01-30T07:08:39.142Z,-2.00
2019-01-30T07:11:10.989Z,-1.90
2019-01-30T07:13:41.664Z,-2.00
2019-01-30T07:16:11.711Z,-2.00
2019-01-30T07:18:41.809Z,-2.00
2019-01-30T07:21:12.413Z,-2.00
2019-01-30T07:23:43.274Z,-2.00
2019-01-30T07:26:13.660Z,-2.00
2019-01-30T07:28:43.068Z,-2.00
2019-01-30T07:31:12.348Z,-1.90
2019-01-30T07:33:41.865Z,-1.90
2019-01-30T07:36:11.858Z,-1.90
2019-01-30T07:38:42.068Z,-1.50
2019-01-30T07:41:11.495Z,-1.40
2019-01-30T07:43:40.864Z,-1.20
2019-01-30T07:46:11.420Z,-0.90
2019-01-30T07:48:41.478Z,-0.70
2019-01-30T07:51:12.362Z,-0.30
2019-01-30T07:53:42.555Z,0.00
2019-01-30T07:56:13.203Z,0.40
2019-01-30T07:58:43.610Z,0.90
2019-01-30T08:01:13.181Z,1.00
2019-01-30T08:03:42.360Z,1.10
2019-01-30T08:06:11.628Z,1.30
2019-01-30T08:08:41.273Z,1.50
2019-01-30T08:11:12.313Z,1.50
2019-01-30T08:13:42.931Z,1.50
2019-01-30T08:16:14.422Z,1.30
2019-01-30T08:18:43.695Z,1.10
2019-01-30T08:21:13.976Z,0.70
2019-01-30T08:23:44.079Z,0.50
2019-01-30T08:26:14.281Z,0.50
2019-01-30T08:28:43.986Z,0.60
2019-01-30T08:31:14.145Z,0.70
2019-01-30T08:33:43.406Z,0.80
2019-01-30T08:36:12.224Z,0.90
2019-01-30T08:38:44.308Z,1.00
2019-01-30T08:41:13.968Z,1.10
2019-01-30T08:43:43.858Z,1.10
2019-01-30T08:46:13.775Z,1.20
2019-01-30T08:48:43.192Z,1.30
2019-01-30T08:51:13.975Z,1.40
2019-01-30T08:53:43.624Z,1.40
2019-01-30T08:56:13.306Z,1.40
2019-01-30T08:58:43.639Z,1.40
2019-01-30T09:01:12.663Z,1.40
2019-01-30T09:03:43.714Z,1.40
2019-01-30T09:06:13.346Z,1.40
2019-01-30T09:08:42.512Z,1.30
2019-01-30T09:11:12.921Z,1.30
2019-01-30T09:13:41.795Z,1.40
2019-01-30T09:16:10.984Z,1.30
2019-01-30T09:18:40.305Z,1.30
2019-01-30T09:21:09.942Z,1.30
2019-01-30T09:23:40.616Z,1.40
2019-01-30T09:26:09.670Z,1.50
2019-01-30T09:28:40.303Z,1.60
2019-01-30T09:31:10.892Z,1.80
2019-01-30T09:33:40.471Z,1.80
2019-01-30T09:36:09.999Z,2.00
2019-01-30T09:38:40.512Z,2.10
2019-01-30T09:41:11.944Z,2.30
2019-01-30T09:43:43.980Z,2.20
2019-01-30T09:46:13.475Z,2.30
2019-01-30T09:48:42.044Z,2.40
2019-01-30T09:51:13.166Z,2.30
2019-01-30T09:53:41.830Z,2.30
2019-01-30T09:56:10.806Z,2.40
2019-01-30T09:58:41.373Z,2.40
2019-01-30T10:01:11.254Z,2.40
2019-01-30T10:03:40.486Z,2.40
2019-01-30T10:06:10.886Z,2.40
2019-01-30T10:08:41.496Z,2.50
2019-01-30T10:11:12.289Z,2.50
2019-01-30T10:13:42.096Z,2.60
2019-01-30T10:16:11.891Z,2.60
2019-01-30T10:18:41.642Z,2.70
2019-01-30T10:21:11.502Z,2.70
2019-01-30T10:23:41.775Z,2.80
2019-01-30T10:26:14.180Z,2.80
2019-01-30T10:28:43.566Z,2.90
2019-01-30T10:31:13.762Z,2.90
2019-01-30T10:33:46.657Z,2.90
2019-01-30T10:36:14.838Z,3.00
2019-01-30T10:38:46.433Z,3.00
2019-01-30T10:41:16.525Z,2.90
2019-01-30T10:43:47.560Z,2.90
2019-01-30T10:46:17.899Z,3.00
2019-01-30T10:48:48.007Z,3.00
2019-01-30T10:51:18.574Z,2.90
2019-01-30T10:53:49.053Z,2.70
2019-01-30T10:56:18.570Z,2.60
2019-01-30T10:58:48.226Z,2.60
2019-01-30T11:01:18.822Z,2.60
2019-01-30T11:03:57.080Z,2.60
2019-01-30T11:06:18.479Z,2.60
2019-01-30T11:08:48.540Z,2.70
2019-01-30T11:11:19.365Z,2.80
2019-01-30T11:13:49.922Z,2.80
2019-01-30T11:16:20.232Z,2.90
2019-01-30T11:18:53.916Z,2.80
2019-01-30T11:21:25.155Z,2.80
2019-01-30T11:23:55.112Z,2.80
2019-01-30T11:26:27.360Z,2.70
2019-01-30T11:28:57.761Z,2.60
2019-01-30T11:31:28.151Z,2.60
2019-01-30T11:34:07.052Z,2.60
2019-01-30T11:36:29.612Z,2.70
2019-01-30T11:39:00.608Z,2.70
2019-01-30T11:41:31.412Z,2.70
2019-01-30T11:44:03.654Z,2.70
2019-01-30T11:46:34.833Z,2.70
2019-01-30T11:49:04.449Z,2.70
2019-01-30T11:51:34.315Z,2.60
2019-01-30T11:54:05.251Z,2.70
2019-01-30T11:56:35.496Z,2.80
2019-01-30T11:59:07.038Z,2.80
2019-01-30T12:01:36.633Z,2.80
2019-01-30T12:04:06.374Z,2.80
2019-01-30T12:06:37.327Z,2.90
2019-01-30T12:09:08.292Z,2.90
2019-01-30T12:11:37.955Z,2.90
2019-01-30T12:14:07.867Z,2.90
2019-01-30T12:16:38.185Z,2.90
2019-01-30T12:19:09.109Z,3.00
2019-01-30T12:21:40.905Z,3.10
2019-01-30T12:24:10.037Z,3.10
2019-01-30T12:26:42.273Z,3.20
2019-01-30T12:29:12.631Z,3.20
2019-01-30T12:31:43.190Z,3.20
2019-01-30T12:34:13.243Z,3.20
2019-01-30T12:36:42.916Z,3.30
2019-01-30T12:39:14.149Z,3.30
2019-01-30T12:41:43.211Z,3.40
2019-01-30T12:44:13.486Z,3.30
2019-01-30T12:46:42.455Z,3.30
2019-01-30T12:49:12.744Z,3.30
2019-01-30T12:51:42.808Z,3.30
2019-01-30T12:54:12.700Z,3.40
2019-01-30T12:56:43.541Z,3.40
2019-01-30T12:59:13.748Z,3.40
2019-01-30T13:01:43.772Z,3.30
2019-01-30T13:04:12.713Z,3.20
2019-01-30T13:06:42.815Z,3.10
2019-01-30T13:09:12.968Z,3.00
2019-01-30T13:11:43.797Z,2.90
2019-01-30T13:14:13.985Z,2.90
2019-01-30T13:16:45.570Z,2.80
2019-01-30T13:19:15.657Z,2.70
2019-01-30T13:21:45.916Z,2.70
2019-01-30T13:24:15.615Z,2.50
2019-01-30T13:26:46.649Z,2.50
2019-01-30T13:29:27.753Z,2.40
2019-01-30T13:31:59.183Z,2.50
2019-01-30T13:34:30.498Z,2.60
2019-01-30T13:37:00.795Z,2.80
2019-01-30T13:39:32.736Z,2.90
2019-01-30T13:42:02.930Z,3.10
2019-01-30T13:44:34.042Z,3.20
2019-01-30T13:47:06.248Z,3.20
2019-01-30T13:49:36.603Z,3.20
2019-01-30T13:52:06.355Z,3.30
2019-01-30T13:54:38.273Z,3.30
2019-01-30T13:57:08.535Z,3.40
2019-01-30T13:59:41.391Z,3.40
2019-01-30T14:02:12.849Z,3.30
2019-01-30T14:04:42.547Z,3.40
2019-01-30T14:07:12.876Z,3.40
2019-01-30T14:09:42.168Z,3.30
2019-01-30T14:12:12.701Z,3.30
2019-01-30T14:14:43.177Z,3.30
2019-01-30T14:17:14.473Z,3.30
2019-01-30T14:19:44.859Z,3.20
2019-01-30T14:22:14.349Z,3.20
2019-01-30T14:24:45.776Z,3.30
2019-01-30T14:27:19.532Z,3.30
2019-01-30T14:29:58.086Z,3.40
2019-01-30T14:32:21.294Z,3.30
2019-01-30T14:34:57.331Z,3.20
2019-01-30T14:37:30.283Z,3.20
2019-01-30T14:40:00.732Z,3.20
2019-01-30T14:42:31.270Z,3.20
2019-01-30T14:45:03.250Z,3.30
2019-01-30T14:47:37.731Z,3.30
2019-01-30T14:50:12.253Z,3.20
2019-01-30T14:52:44.344Z,3.00
2019-01-30T14:55:16.210Z,3.00
2019-01-30T14:57:47.006Z,2.90
2019-01-30T15:00:23.639Z,2.90
2019-01-30T15:02:54.203Z,3.00
2019-01-30T15:05:28.032Z,3.00
2019-01-30T15:08:02.287Z,3.00
2019-01-30T15:10:34.869Z,3.00
2019-01-30T15:13:08.388Z,3.00
2019-01-30T15:15:39.927Z,3.00
2019-01-30T15:18:11.561Z,3.10
2019-01-30T15:20:42.654Z,3.00
2019-01-30T15:23:13.507Z,3.00
2019-01-30T15:25:44.393Z,3.00
2019-01-30T15:28:13.753Z,2.90
2019-01-30T15:30:46.697Z,2.90
2019-01-30T15:33:17.323Z,2.90
2019-01-30T15:35:47.433Z,2.90
2019-01-30T15:38:21.042Z,2.80
2019-01-30T15:40:51.137Z,2.70
2019-01-30T15:43:22.097Z,2.80
2019-01-30T15:45:52.839Z,2.70
2019-01-30T15:48:22.223Z,2.50
2019-01-30T15:50:52.855Z,2.50
2019-01-30T15:53:25.166Z,2.40
2019-01-30T15:55:57.329Z,2.50
2019-01-30T15:58:27.884Z,2.70
2019-01-30T16:01:21.063Z,2.80
2019-01-30T16:03:50.982Z,2.70
2019-01-30T16:06:22.285Z,2.70
2019-01-30T16:08:53.284Z,2.60
2019-01-30T16:11:23.121Z,2.50
2019-01-30T16:13:54.335Z,2.40
2019-01-30T16:16:24.446Z,2.40
2019-01-30T16:18:55.033Z,2.30
2019-01-30T16:21:26.315Z,2.20
2019-01-30T16:23:56.323Z,2.20
2019-01-30T16:26:26.133Z,2.40
2019-01-30T16:28:59.296Z,2.60
2019-01-30T16:31:29.099Z,2.50
2019-01-30T16:34:00.661Z,2.50
2019-01-30T16:36:31.222Z,2.60
2019-01-30T16:39:05.609Z,2.60
2019-01-30T16:41:38.339Z,2.60
2019-01-30T16:44:09.125Z,2.50
2019-01-30T16:46:38.631Z,2.50
2019-01-30T16:49:08.522Z,2.40
2019-01-30T16:51:38.699Z,2.40
2019-01-30T16:54:09.035Z,2.40
2019-01-30T16:56:38.779Z,2.50
2019-01-30T16:59:09.133Z,2.40
2019-01-30T17:01:39.982Z,2.50
2019-01-30T17:04:10.386Z,2.40
2019-01-30T17:06:40.611Z,2.40
2019-01-30T17:09:12.173Z,2.40
2019-01-30T17:11:41.373Z,2.40
2019-01-30T17:14:13.336Z,2.30
2019-01-30T17:16:42.722Z,2.30
2019-01-30T17:19:13.638Z,2.30
2019-01-30T17:21:44.146Z,2.30
2019-01-30T17:24:13.331Z,2.30
2019-01-30T17:26:43.869Z,2.20
2019-01-30T17:29:15.074Z,2.20
2019-01-30T17:31:45.618Z,2.20
2019-01-30T17:34:15.573Z,2.20
2019-01-30T17:36:44.931Z,2.30
2019-01-30T17:39:18.760Z,2.20
2019-01-30T17:41:49.918Z,2.30
2019-01-30T17:44:22.695Z,2.30
2019-01-30T17:46:52.525Z,2.40
2019-01-30T17:49:24.352Z,2.30
2019-01-30T17:51:54.013Z,2.30
2019-01-30T17:54:23.262Z,2.20
2019-01-30T17:56:52.651Z,2.30
2019-01-30T17:59:23.060Z,2.20
2019-01-30T18:01:53.345Z,2.30
2019-01-30T18:04:22.990Z,2.50
2019-01-30T18:06:55.275Z,2.40
2019-01-30T18:09:24.745Z,2.40
2019-01-30T18:11:54.547Z,2.40
2019-01-30T18:14:24.619Z,2.30
2019-01-30T18:16:54.002Z,2.30
2019-01-30T18:19:26.133Z,2.30
2019-01-30T18:21:56.667Z,2.30
2019-01-30T18:24:26.976Z,2.20
2019-01-30T18:26:57.953Z,2.20
2019-01-30T18:29:28.482Z,2.20
2019-01-30T18:31:59.591Z,2.20
2019-01-30T18:34:30.389Z,2.20
2019-01-30T18:37:01.263Z,2.30
2019-01-30T18:39:30.622Z,2.40
2019-01-30T18:42:06.226Z,2.40
2019-01-30T18:44:38.274Z,2.50
2019-01-30T18:47:08.296Z,2.50
2019-01-30T18:49:38.712Z,2.50
2019-01-30T18:52:08.835Z,2.60
2019-01-30T18:54:38.881Z,2.50
2019-01-30T18:57:09.406Z,2.50
2019-01-30T18:59:39.788Z,2.50
2019-01-30T19:02:12.579Z,2.50
2019-01-30T19:04:43.730Z,2.50
2019-01-30T19:07:14.096Z,2.50
2019-01-30T19:09:46.166Z,2.60
2019-01-30T19:12:15.492Z,2.60
2019-01-30T19:14:46.526Z,2.70
2019-01-30T19:17:17.114Z,2.60
2019-01-30T19:19:47.765Z,2.60
2019-01-30T19:22:19.029Z,2.60
2019-01-30T19:24:49.375Z,2.70
2019-01-30T19:27:18.876Z,2.60
2019-01-30T19:29:49.370Z,2.60
2019-01-30T19:32:18.917Z,2.50
2019-01-30T19:34:48.418Z,2.50
2019-01-30T19:37:19.015Z,2.50
2019-01-30T19:39:49.449Z,2.50
2019-01-30T19:42:19.725Z,2.50
2019-01-30T19:44:52.795Z,2.40
2019-01-30T19:47:23.100Z,2.50
2019-01-30T19:49:54.693Z,2.40
2019-01-30T19:52:26.296Z,2.40
2019-01-30T19:54:59.670Z,2.50
2019-01-30T19:57:30.611Z,2.50
2019-01-30T20:00:01.454Z,2.50
2019-01-30T20:02:33.186Z,2.40
2019-01-30T20:05:06.433Z,2.40
2019-01-30T20:07:36.750Z,2.50
2019-01-30T20:10:11.361Z,2.40
2019-01-30T20:12:41.083Z,2.40
2019-01-30T20:15:12.444Z,2.40
2019-01-30T20:17:42.537Z,2.40
2019-01-30T20:20:15.607Z,2.50
2019-01-30T20:22:46.578Z,2.50
2019-01-30T20:25:23.793Z,2.50
2019-01-30T20:27:55.815Z,2.50
2019-01-30T20:30:28.462Z,2.40
2019-01-30T20:32:58.402Z,2.40
2019-01-30T20:35:31.235Z,2.40
2019-01-30T20:38:01.084Z,2.40
2019-01-30T20:40:33.721Z,2.40
2019-01-30T20:43:06.816Z,2.50
2019-01-30T20:45:37.864Z,2.60
2019-01-30T20:48:08.377Z,2.70
2019-01-30T20:50:38.756Z,2.80
2019-01-30T20:53:08.626Z,2.70
2019-01-30T20:55:38.818Z,2.60
2019-01-30T20:58:09.219Z,2.60
2019-01-30T21:00:40.892Z,2.50
2019-01-30T21:03:11.532Z,2.40
2019-01-30T21:05:44.782Z,2.40
2019-01-30T21:08:14.313Z,2.30
2019-01-30T21:10:45.563Z,2.20
2019-01-30T21:13:15.386Z,2.30
2019-01-30T21:15:45.438Z,2.30
2019-01-30T21:18:18.154Z,2.20
2019-01-30T21:20:48.871Z,2.00
2019-01-30T21:23:19.927Z,1.80
2019-01-30T21:25:50.019Z,1.80
2019-01-30T21:28:21.920Z,1.80
2019-01-30T21:30:54.404Z,1.80
2019-01-30T21:33:27.295Z,1.80
2019-01-30T21:35:58.092Z,1.80
2019-01-30T21:38:28.321Z,1.80
2019-01-30T21:41:05.076Z,1.80
2019-01-30T21:43:35.101Z,1.70
2019-01-30T21:46:06.550Z,1.70
2019-01-30T21:48:41.303Z,1.60
2019-01-30T21:51:11.788Z,1.60
2019-01-30T21:53:41.200Z,1.60
2019-01-30T21:56:13.076Z,1.60
2019-01-30T21:58:46.098Z,1.60
2019-01-30T22:01:20.604Z,1.60
2019-01-30T22:03:49.485Z,1.60
2019-01-30T22:06:19.172Z,1.70
2019-01-30T22:08:51.344Z,1.70
2019-01-30T22:11:21.188Z,1.70
2019-01-30T22:13:51.922Z,1.70
2019-01-30T22:16:22.624Z,1.70
2019-01-30T22:18:53.098Z,1.70
2019-01-30T22:21:23.873Z,1.60
2019-01-30T22:24:05.189Z,1.60
2019-01-30T22:26:27.418Z,1.60
2019-01-30T22:28:56.683Z,1.50
2019-01-30T22:31:30.705Z,1.50
2019-01-30T22:34:00.420Z,1.50
2019-01-30T22:36:31.371Z,1.50
2019-01-30T22:39:01.705Z,1.50
2019-01-30T22:41:32.828Z,1.40
2019-01-30T22:44:04.323Z,1.40
2019-01-30T22:46:35.448Z,1.40
2019-01-30T22:49:05.665Z,1.40
2019-01-30T22:51:36.737Z,1.30
2019-01-30T22:54:09.653Z,1.20
2019-01-30T22:56:41.479Z,1.20
2019-01-30T22:59:11.556Z,1.30
2019-01-30T23:01:51.296Z,1.30
2019-01-30T23:04:54.611Z,1.30
2019-01-30T23:08:04.473Z,1.30
2019-01-30T23:11:31.712Z,1.40
2019-01-30T23:14:22.833Z,1.30
2019-01-30T23:18:10.307Z,1.30
2019-01-30T23:20:52.366Z,1.60
2019-01-30T23:24:22.739Z,1.70
2019-01-30T23:27:24.064Z,1.60
2019-01-30T23:30:37.264Z,1.40
2019-01-30T23:34:06.787Z,1.40
2019-01-30T23:37:12.334Z,1.40
2019-01-30T23:41:03.402Z,1.50
2019-01-30T23:44:19.394Z,1.50
2019-01-30T23:48:02.003Z,1.70
2019-01-30T23:51:28.371Z,1.70
2019-01-30T23:54:44.113Z,1.50
2019-01-30T23:58:07.362Z,1.50
